Time;durP1;ratioP1;P1;durP2;ratioP2;P2;SDS_P1;SDS_P2;PMS_P1;PMS_P2;Temp;Humidity;BMP_temperature;BMP_pressure;BME280_temperature;BME280_humidity;BME280_pressure;Samples;Min_cycle;Max_cycle;Signal;HPM_P1;HPM_P2
2023/04/18 00:00:47;;;;;;;14.85;13.25;;;6.60;99.90;;;;;;4900841;28;89338;-31
2023/04/18 00:03:14;;;;;;;15.20;12.38;;;6.60;99.90;;;;;;4901271;28;89923;-32
2023/04/18 00:05:40;;;;;;;12.13;10.73;;;6.50;99.90;;;;;;4899858;28;88160;-34
2023/04/18 00:08:05;;;;;;;19.27;12.88;;;6.50;99.90;;;;;;4939204;23;89688;-30
2023/04/18 00:10:31;;;;;;;18.58;12.90;;;6.50;99.90;;;;;;4882069;28;89812;-34
2023/04/18 00:12:57;;;;;;;15.65;11.25;;;6.50;99.90;;;;;;4881523;28;89609;-34
2023/04/18 00:15:23;;;;;;;16.73;12.27;;;6.40;99.90;;;;;;4881524;28;88718;-32
2023/04/18 00:17:49;;;;;;;16.95;12.60;;;6.40;99.90;;;;;;4882024;28;90586;-33
2023/04/18 00:20:14;;;;;;;16.85;12.30;;;6.50;99.90;;;;;;4881841;28;89495;-30
2023/04/18 00:22:41;;;;;;;20.85;12.23;;;6.50;99.90;;;;;;4878930;28;89788;-30
2023/04/18 00:25:08;;;;;;;14.82;11.15;;;6.40;99.90;;;;;;4872498;28;88800;-33
2023/04/18 00:27:34;;;;;;;17.27;12.50;;;6.40;99.90;;;;;;4882041;28;89277;-31
2023/04/18 00:30:00;;;;;;;18.10;12.20;;;6.40;99.90;;;;;;4881560;28;89823;-32
2023/04/18 00:32:25;;;;;;;14.80;10.95;;;6.40;99.90;;;;;;4880567;28;89647;-30
2023/04/18 00:34:51;;;;;;;17.17;11.85;;;6.30;99.90;;;;;;4881099;28;88579;-30
2023/04/18 00:37:16;;;;;;;17.48;11.73;;;6.20;99.90;;;;;;4880703;28;90505;-30
2023/04/18 00:39:42;;;;;;;15.07;11.30;;;6.20;99.90;;;;;;4880858;28;90971;-30
2023/04/18 00:42:08;;;;;;;15.45;11.98;;;6.30;99.90;;;;;;4879727;28;90195;-34
2023/04/18 00:44:33;;;;;;;13.98;12.40;;;6.30;99.90;;;;;;4881547;28;89835;-32
2023/04/18 00:46:59;;;;;;;17.63;11.75;;;6.20;99.90;;;;;;4880558;28;90332;-33
2023/04/18 00:49:25;;;;;;;13.88;12.02;;;6.20;99.90;;;;;;4882232;28;90016;-32
2023/04/18 00:51:52;;;;;;;14.20;10.73;;;6.20;99.90;;;;;;4880837;28;89788;-32
2023/04/18 00:54:18;;;;;;;15.63;13.18;;;6.10;99.90;;;;;;4881296;28;89258;-32
2023/04/18 00:56:47;;;;;;;21.88;12.68;;;6.10;99.90;;;;;;4881060;28;89865;-30
2023/04/18 00:59:13;;;;;;;16.92;12.45;;;6.10;99.90;;;;;;4881447;28;89656;-30
2023/04/18 01:01:39;;;;;;;17.85;12.07;;;6.00;99.90;;;;;;4880855;28;89839;-31
2023/04/18 01:04:05;;;;;;;14.55;10.60;;;5.90;99.90;;;;;;4881895;28;88712;-31
2023/04/18 01:06:31;;;;;;;20.08;12.15;;;6.10;99.90;;;;;;4880970;28;91022;-31
2023/04/18 01:08:57;;;;;;;14.27;10.68;;;6.00;99.90;;;;;;4880959;28;89280;-32
2023/04/18 01:11:23;;;;;;;16.67;10.75;;;6.00;99.90;;;;;;4881114;28;89897;-30
2023/04/18 01:14:05;;;;;;;15.52;10.35;;;6.00;99.90;;;;;;4881062;28;89661;-29
2023/04/18 01:16:32;;;;;;;13.45;10.63;;;6.00;99.90;;;;;;4881597;28;92011;-29
2023/04/18 01:19:02;;;;;;;15.85;11.73;;;6.10;99.90;;;;;;4880819;28;88903;-31
2023/04/18 01:21:30;;;;;;;16.95;10.45;;;5.90;99.90;;;;;;4880575;28;88736;-31
2023/04/18 01:24:01;;;;;;;17.07;11.80;;;5.90;99.90;;;;;;4868998;28;88719;-33
2023/04/18 01:26:28;;;;;;;16.73;10.48;;;5.90;99.90;;;;;;4868538;28;89487;-31
2023/04/18 01:28:54;;;;;;;14.45;12.45;;;6.00;99.90;;;;;;4880958;28;90078;-32
2023/04/18 01:31:20;;;;;;;17.27;11.95;;;6.00;99.90;;;;;;4869416;28;90199;-30
2023/04/18 01:33:45;;;;;;;17.60;11.82;;;5.90;99.90;;;;;;4879898;28;89687;-29
2023/04/18 01:36:11;;;;;;;16.05;9.90;;;5.90;99.90;;;;;;4880727;28;90160;-31
2023/04/18 01:38:37;;;;;;;14.73;9.32;;;6.00;99.90;;;;;;4881311;28;89576;-32
2023/04/18 01:41:02;;;;;;;22.30;12.02;;;6.00;99.90;;;;;;4881900;28;89961;-34
2023/04/18 01:43:28;;;;;;;18.60;10.57;;;6.00;99.90;;;;;;4879950;28;89056;-32
2023/04/18 01:45:53;;;;;;;12.43;9.43;;;6.00;99.90;;;;;;4880176;28;90445;-33
2023/04/18 01:48:19;;;;;;;14.63;9.60;;;6.10;99.90;;;;;;4881260;28;88892;-30
2023/04/18 01:50:45;;;;;;;13.70;12.27;;;6.10;99.90;;;;;;4881114;28;89944;-33
2023/04/18 01:53:10;;;;;;;17.05;9.93;;;6.00;99.90;;;;;;4880769;28;90174;-33
2023/04/18 01:55:36;;;;;;;14.40;10.98;;;6.00;99.90;;;;;;4881679;28;89997;-33
2023/04/18 01:58:01;;;;;;;15.15;9.73;;;6.00;99.90;;;;;;4883535;28;90818;-35
2023/04/18 02:00:27;;;;;;;17.60;11.55;;;6.10;99.90;;;;;;4884755;28;89905;-30
2023/04/18 02:02:53;;;;;;;16.88;11.70;;;6.10;99.90;;;;;;4883764;28;89172;-33
2023/04/18 02:05:18;;;;;;;14.18;9.77;;;6.10;99.90;;;;;;4884795;28;89786;-32
2023/04/18 02:07:46;;;;;;;16.92;11.40;;;6.10;99.90;;;;;;4883355;28;89504;-29
2023/04/18 02:10:12;;;;;;;14.70;11.67;;;6.10;99.90;;;;;;4884168;28;89472;-32
2023/04/18 02:12:37;;;;;;;15.30;13.00;;;6.10;99.90;;;;;;4884039;28;89944;-29
2023/04/18 02:15:03;;;;;;;16.33;10.63;;;6.10;99.90;;;;;;4883291;28;89150;-30
2023/04/18 02:17:29;;;;;;;17.38;12.38;;;6.20;99.90;;;;;;4883234;28;91244;-33
2023/04/18 02:19:55;;;;;;;15.85;12.23;;;6.20;99.90;;;;;;4883142;28;90972;-28
2023/04/18 02:22:20;;;;;;;15.02;10.10;;;6.10;99.90;;;;;;4882920;28;89497;-34
2023/04/18 02:24:46;;;;;;;20.23;12.93;;;6.20;99.90;;;;;;4870289;28;91866;-30
2023/04/18 02:27:12;;;;;;;18.35;13.13;;;6.10;99.90;;;;;;4883027;28;90025;-32
2023/04/18 02:29:37;;;;;;;17.90;12.77;;;6.10;99.90;;;;;;4883874;28;89495;-35
2023/04/18 02:32:03;;;;;;;22.27;14.93;;;6.10;99.90;;;;;;4882841;28;89067;-36
2023/04/18 02:34:29;;;;;;;12.68;9.88;;;6.20;99.90;;;;;;4883546;28;89807;-35
2023/04/18 02:36:54;;;;;;;18.13;11.88;;;6.20;99.90;;;;;;4884111;28;89061;-31
2023/04/18 02:39:20;;;;;;;18.30;14.05;;;6.20;99.90;;;;;;4883185;28;89216;-33
2023/04/18 02:41:46;;;;;;;14.07;9.07;;;6.20;99.90;;;;;;4883786;28;89511;-31
2023/04/18 02:44:11;;;;;;;19.17;13.07;;;6.30;99.90;;;;;;4882997;28;90074;-32
2023/04/18 02:46:37;;;;;;;21.90;17.92;;;6.20;99.90;;;;;;4883054;28;90299;-36
2023/04/18 02:49:02;;;;;;;19.98;13.10;;;6.30;99.90;;;;;;4882857;28;88816;-34
2023/04/18 02:51:28;;;;;;;16.02;11.35;;;6.30;99.90;;;;;;4883708;28;87824;-31
2023/04/18 02:53:54;;;;;;;28.10;12.95;;;6.20;99.90;;;;;;4883333;28;91352;-34
2023/04/18 02:56:20;;;;;;;14.05;9.50;;;6.20;99.90;;;;;;4882475;28;90064;-36
2023/04/18 02:58:47;;;;;;;15.70;11.10;;;6.30;99.90;;;;;;4883610;28;90183;-36
2023/04/18 03:01:14;;;;;;;16.77;12.80;;;6.30;99.90;;;;;;4882758;28;88445;-36
2023/04/18 03:03:40;;;;;;;14.05;10.85;;;6.20;99.90;;;;;;4882497;28;90454;-35
2023/04/18 03:06:05;;;;;;;17.05;11.27;;;6.20;99.90;;;;;;4883171;28;91314;-31
2023/04/18 03:08:31;;;;;;;18.30;12.98;;;6.30;99.90;;;;;;4880466;28;90201;-31
2023/04/18 03:10:56;;;;;;;21.58;12.73;;;6.30;99.90;;;;;;4883053;28;89249;-35
2023/04/18 03:13:22;;;;;;;21.35;13.63;;;6.20;99.90;;;;;;4882403;28;90759;-36
2023/04/18 03:15:48;;;;;;;25.60;14.13;;;6.30;99.90;;;;;;4883058;28;89897;-33
2023/04/18 03:18:13;;;;;;;16.77;11.68;;;6.30;99.90;;;;;;4883135;28;92466;-33
2023/04/18 03:20:39;;;;;;;16.42;12.02;;;6.20;99.90;;;;;;4882445;28;89053;-37
2023/04/18 03:23:05;;;;;;;15.95;13.02;;;6.30;99.90;;;;;;4877032;28;90093;-33
2023/04/18 03:25:31;;;;;;;16.67;11.25;;;6.30;99.90;;;;;;4875565;28;90346;-33
2023/04/18 03:27:56;;;;;;;12.20;9.75;;;6.30;99.90;;;;;;4882865;28;89105;-35
2023/04/18 03:30:22;;;;;;;17.33;11.77;;;6.30;99.90;;;;;;4883106;28;90410;-33
2023/04/18 03:32:48;;;;;;;13.98;9.88;;;6.30;99.90;;;;;;4881726;28;90244;-36
2023/04/18 03:35:14;;;;;;;12.80;10.10;;;6.40;99.90;;;;;;4883362;28;89643;-33
2023/04/18 03:37:39;;;;;;;15.95;9.68;;;6.40;99.90;;;;;;4881934;28;89673;-36
2023/04/18 03:40:06;;;;;;;12.45;9.57;;;6.40;99.90;;;;;;4882169;28;88674;-35
2023/04/18 03:42:31;;;;;;;13.00;10.80;;;6.50;99.90;;;;;;4882456;28;91467;-31
2023/04/18 03:44:57;;;;;;;13.40;10.30;;;6.50;99.90;;;;;;4882171;28;89225;-34
2023/04/18 03:47:22;;;;;;;18.40;11.20;;;6.60;99.90;;;;;;4882521;28;89547;-31
2023/04/18 03:49:48;;;;;;;19.58;13.50;;;6.60;99.90;;;;;;4882539;28;89209;-32
2023/04/18 03:52:14;;;;;;;18.23;13.13;;;6.60;99.90;;;;;;4881860;28;89831;-34
2023/04/18 03:54:40;;;;;;;20.88;13.45;;;6.60;99.90;;;;;;4881314;28;89940;-34
2023/04/18 03:57:06;;;;;;;14.10;11.55;;;6.60;99.90;;;;;;4882062;28;90910;-33
2023/04/18 03:59:31;;;;;;;13.95;11.13;;;6.60;99.90;;;;;;4883476;28;88303;-33
2023/04/18 04:01:57;;;;;;;23.08;18.23;;;6.60;99.90;;;;;;4881441;28;90210;-32
2023/04/18 04:04:23;;;;;;;18.80;12.80;;;6.60;99.90;;;;;;4882389;28;89398;-35
2023/04/18 04:06:48;;;;;;;23.85;11.32;;;6.70;99.90;;;;;;4881417;28;89630;-32
2023/04/18 04:09:14;;;;;;;14.95;10.27;;;6.60;99.90;;;;;;4882524;28;88674;-31
2023/04/18 04:11:39;;;;;;;22.65;16.20;;;6.60;99.90;;;;;;4881917;28;89899;-31
2023/04/18 04:14:05;;;;;;;17.08;14.70;;;6.70;99.90;;;;;;4881950;28;89541;-31
2023/04/18 04:16:31;;;;;;;14.77;10.80;;;6.70;99.90;;;;;;4882100;28;89978;-32
2023/04/18 04:18:56;;;;;;;23.08;14.07;;;6.70;99.90;;;;;;4880842;28;88973;-30
2023/04/18 04:21:22;;;;;;;17.92;13.15;;;6.70;99.90;;;;;;4881383;28;90463;-34
2023/04/18 04:23:47;;;;;;;16.98;12.13;;;6.70;99.90;;;;;;4882061;28;89839;-32
2023/04/18 04:26:16;;;;;;;19.08;17.08;;;6.60;99.90;;;;;;4882428;28;89023;-34
2023/04/18 04:28:45;;;;;;;17.63;14.48;;;6.70;99.90;;;;;;4881788;28;89601;-33
2023/04/18 04:31:11;;;;;;;12.48;11.27;;;6.70;99.90;;;;;;4881928;28;89855;-31
2023/04/18 04:33:37;;;;;;;19.60;14.60;;;6.70;99.90;;;;;;4881160;28;90360;-32
2023/04/18 04:36:04;;;;;;;18.15;12.63;;;6.70;99.90;;;;;;4882167;28;89477;-36
2023/04/18 04:38:30;;;;;;;20.52;12.70;;;6.70;99.90;;;;;;4881535;28;87935;-34
2023/04/18 04:40:56;;;;;;;14.25;12.27;;;6.60;99.90;;;;;;4881421;28;90282;-32
2023/04/18 04:43:23;;;;;;;19.08;11.85;;;6.70;99.90;;;;;;4881417;28;90885;-36
2023/04/18 04:45:51;;;;;;;20.35;17.00;;;6.60;99.90;;;;;;4881354;28;91721;-33
2023/04/18 04:48:18;;;;;;;18.75;11.68;;;6.60;99.90;;;;;;4880988;28;89147;-33
2023/04/18 04:50:54;;;;;;;17.98;14.23;;;6.70;99.90;;;;;;4879496;28;90746;-31
2023/04/18 04:53:21;;;;;;;15.98;12.70;;;6.70;99.90;;;;;;4881877;28;89393;-31
2023/04/18 04:55:47;;;;;;;18.55;12.65;;;6.60;99.90;;;;;;4881582;28;89470;-34
2023/04/18 04:58:12;;;;;;;17.13;10.93;;;6.60;99.90;;;;;;4881156;28;89495;-33
2023/04/18 05:00:38;;;;;;;15.95;11.93;;;6.60;99.90;;;;;;4881826;28;90224;-35
2023/04/18 05:03:04;;;;;;;26.92;13.38;;;6.50;99.90;;;;;;4875378;28;89752;-36
2023/04/18 05:05:30;;;;;;;18.15;14.55;;;6.60;99.90;;;;;;4876727;28;89223;-32
2023/04/18 05:07:55;;;;;;;16.52;13.40;;;6.60;99.90;;;;;;4880401;28;89587;-31
2023/04/18 05:10:22;;;;;;;21.40;13.30;;;6.60;99.90;;;;;;4881555;28;91054;-35
2023/04/18 05:12:47;;;;;;;15.95;12.20;;;6.50;99.90;;;;;;4881698;28;89627;-33
2023/04/18 05:15:15;;;;;;;22.75;13.63;;;6.50;99.90;;;;;;4869006;28;89486;-31
2023/04/18 05:17:41;;;;;;;14.45;11.68;;;6.60;99.90;;;;;;4877510;28;90872;-31
2023/04/18 05:20:07;;;;;;;16.20;13.27;;;6.60;99.90;;;;;;4877070;28;90935;-31
2023/04/18 05:22:33;;;;;;;19.25;12.80;;;6.60;99.90;;;;;;4881163;28;89133;-35
2023/04/18 05:24:58;;;;;;;15.20;11.98;;;6.60;99.90;;;;;;4881970;28;89660;-32
2023/04/18 05:27:25;;;;;;;19.75;12.30;;;6.70;99.90;;;;;;4880469;28;89240;-32
2023/04/18 05:29:51;;;;;;;22.70;16.35;;;6.60;99.90;;;;;;4881038;28;90491;-32
2023/04/18 05:32:17;;;;;;;27.83;16.58;;;6.70;99.90;;;;;;4880574;28;91561;-35
2023/04/18 05:34:42;;;;;;;20.15;15.00;;;6.70;99.90;;;;;;4876796;28;90187;-33
2023/04/18 05:37:08;;;;;;;25.00;13.18;;;6.70;99.90;;;;;;4876159;28;88191;-36
2023/04/18 05:39:33;;;;;;;16.55;14.43;;;6.70;99.90;;;;;;4878537;28;90583;-33
2023/04/18 05:42:00;;;;;;;19.63;12.13;;;6.70;99.90;;;;;;4878380;28;90088;-36
2023/04/18 05:44:25;;;;;;;14.88;11.55;;;6.70;99.90;;;;;;4879199;28;88741;-34
2023/04/18 05:46:51;;;;;;;18.27;11.60;;;6.70;99.90;;;;;;4878641;28;88256;-34
2023/04/18 05:49:20;;;;;;;15.57;11.52;;;6.80;99.90;;;;;;4873348;28;90248;-34
2023/04/18 05:51:48;;;;;;;19.20;14.93;;;6.80;99.90;;;;;;4861726;28;90220;-32
2023/04/18 05:54:15;;;;;;;17.33;13.70;;;6.80;99.90;;;;;;4879514;28;88582;-34
2023/04/18 05:56:40;;;;;;;20.90;14.15;;;6.80;99.90;;;;;;4888406;28;89639;-34
2023/04/18 05:59:06;;;;;;;20.65;14.18;;;6.80;99.90;;;;;;4878569;28;90074;-32
2023/04/18 06:01:32;;;;;;;18.20;15.30;;;6.90;99.90;;;;;;4878558;28;90827;-34
2023/04/18 06:03:57;;;;;;;21.67;13.30;;;6.90;99.90;;;;;;4878075;28;89858;-36
2023/04/18 06:06:23;;;;;;;24.83;18.00;;;6.90;99.90;;;;;;4879299;28;89712;-32
2023/04/18 06:08:49;;;;;;;22.98;14.45;;;6.90;99.90;;;;;;4877798;28;90449;-35
2023/04/18 06:11:14;;;;;;;17.60;13.80;;;6.90;99.90;;;;;;4877113;28;90480;-32
2023/04/18 06:13:40;;;;;;;23.85;14.50;;;7.00;99.90;;;;;;4867770;28;90832;-32
2023/04/18 06:16:07;;;;;;;19.35;13.60;;;7.00;99.90;;;;;;4877700;28;89142;-35
2023/04/18 06:18:32;;;;;;;25.60;15.23;;;7.00;99.90;;;;;;4878885;28;90743;-32
2023/04/18 06:20:58;;;;;;;18.92;12.73;;;7.10;99.90;;;;;;4877702;28;91026;-32
2023/04/18 06:23:24;;;;;;;21.05;16.80;;;7.10;99.90;;;;;;4870641;28;92037;-33
2023/04/18 06:25:50;;;;;;;21.48;14.80;;;7.10;99.90;;;;;;4877214;28;90507;-33
2023/04/18 06:28:15;;;;;;;21.83;13.63;;;7.20;99.90;;;;;;4877407;28;90190;-34
2023/04/18 06:30:41;;;;;;;19.77;14.15;;;7.20;99.90;;;;;;4876111;28;90204;-35
2023/04/18 06:33:10;;;;;;;29.25;17.98;;;7.30;99.90;;;;;;4876533;28;89580;-31
2023/04/18 06:35:36;;;;;;;;;;;7.30;99.90;;;;;;4877110;28;89825;-31
2023/04/18 06:38:01;;;;;;;23.08;13.90;;;7.40;99.90;;;;;;4879003;28;89528;-33
2023/04/18 06:40:27;;;;;;;14.48;11.48;;;7.40;99.90;;;;;;4845017;28;89608;-32
2023/04/18 06:42:53;;;;;;;14.02;12.02;;;7.50;99.90;;;;;;4558982;28;89545;-32
2023/04/18 06:45:18;;;;;;;16.92;11.27;;;7.60;99.90;;;;;;4862181;28;90480;-31
2023/04/18 06:47:44;;;;;;;16.13;11.95;;;7.60;99.90;;;;;;4854670;28;90122;-36
2023/04/18 06:50:10;;;;;;;20.60;15.95;;;7.70;99.90;;;;;;4879281;28;91408;-34
2023/04/18 06:52:43;;;;;;;25.08;14.52;;;7.80;99.90;;;;;;4879913;28;89319;-31
2023/04/18 06:55:09;;;;;;;16.27;14.32;;;7.90;99.90;;;;;;4881244;28;88604;-33
2023/04/18 06:57:36;;;;;;;14.13;10.23;;;7.90;99.90;;;;;;4846339;28;90825;-31
2023/04/18 07:00:03;;;;;;;24.30;18.90;;;7.90;99.90;;;;;;4877887;28;90076;-34
2023/04/18 07:02:29;;;;;;;17.08;11.38;;;8.00;99.90;;;;;;4880727;28;91259;-35
2023/04/18 07:04:55;;;;;;;12.88;11.02;;;8.10;99.90;;;;;;4879975;28;89245;-32
2023/04/18 07:07:21;;;;;;;14.98;13.35;;;8.30;99.90;;;;;;4881136;28;89652;-32
2023/04/18 07:09:47;;;;;;;10.63;9.45;;;8.30;99.90;;;;;;4879339;28;90943;-32
2023/04/18 07:12:13;;;;;;;17.05;12.75;;;8.30;99.90;;;;;;4880490;28;91816;-36
2023/04/18 07:14:39;;;;;;;16.63;12.00;;;8.30;99.90;;;;;;4880864;28;88425;-31
2023/04/18 07:17:04;;;;;;;16.75;14.05;;;8.50;99.90;;;;;;4880345;28;90704;-32
2023/04/18 07:19:30;;;;;;;29.63;14.10;;;8.60;99.90;;;;;;4880801;28;90800;-31
2023/04/18 07:21:55;;;;;;;15.07;11.75;;;8.70;99.90;;;;;;4879421;28;89999;-31
2023/04/18 07:24:22;;;;;;;17.73;13.73;;;9.00;99.90;;;;;;4826383;28;89184;-32
2023/04/18 07:26:49;;;;;;;23.65;12.57;;;9.10;99.90;;;;;;4880290;28;90309;-32
2023/04/18 07:29:15;;;;;;;16.70;10.52;;;9.20;99.90;;;;;;4879194;28;90209;-31
2023/04/18 07:31:40;;;;;;;13.98;12.15;;;9.20;99.90;;;;;;4880165;28;89821;-30
2023/04/18 07:34:07;;;;;;;14.95;13.40;;;9.30;99.90;;;;;;4879874;28;88931;-29
2023/04/18 07:36:33;;;;;;;14.77;12.32;;;9.30;99.90;;;;;;4879981;28;91063;-32
2023/04/18 07:39:00;;;;;;;19.20;17.23;;;9.50;99.90;;;;;;4879631;28;90636;-31
2023/04/18 07:41:26;;;;;;;13.43;11.38;;;9.60;99.90;;;;;;4875181;28;89736;-32
2023/04/18 07:43:51;;;;;;;19.35;12.27;;;9.50;99.90;;;;;;4876779;28;90037;-34
2023/04/18 07:46:17;;;;;;;17.77;14.40;;;9.70;99.90;;;;;;4880486;28;90126;-31
2023/04/18 07:48:42;;;;;;;15.35;11.25;;;9.60;99.90;;;;;;4879595;28;89467;-31
2023/04/18 07:51:08;;;;;;;13.40;11.98;;;9.80;99.90;;;;;;4880201;28;90590;-29
2023/04/18 07:53:34;;;;;;;20.00;14.10;;;9.90;99.90;;;;;;4878890;28;90214;-31
2023/04/18 07:55:59;;;;;;;15.82;11.32;;;10.00;99.90;;;;;;4880114;28;90273;-34
2023/04/18 07:58:25;;;;;;;14.40;10.93;;;9.90;99.90;;;;;;4879392;28;90120;-29
2023/04/18 08:00:50;;;;;;;15.10;11.45;;;10.10;99.90;;;;;;4879670;28;90641;-35
2023/04/18 08:03:16;;;;;;;20.52;12.27;;;10.20;99.90;;;;;;4880047;28;89823;-29
2023/04/18 08:05:42;;;;;;;12.23;10.93;;;10.10;99.90;;;;;;4882544;28;90234;-32
2023/04/18 08:08:10;;;;;;;18.15;14.98;;;10.00;99.90;;;;;;4881764;28;90228;-33
2023/04/18 08:10:37;;;;;;;15.20;11.20;;;9.80;99.90;;;;;;4880134;28;88925;-32
2023/04/18 08:13:03;;;;;;;14.30;12.90;;;9.60;99.90;;;;;;4879474;28;89061;-29
2023/04/18 08:15:31;;;;;;;17.02;13.65;;;9.60;99.90;;;;;;4879534;28;90113;-30
2023/04/18 08:17:57;;;;;;;18.40;14.07;;;9.60;99.90;;;;;;4879288;28;89637;-29
2023/04/18 08:20:23;;;;;;;20.83;14.57;;;9.50;99.90;;;;;;4879268;28;89875;-31
2023/04/18 08:22:49;;;;;;;16.67;14.98;;;9.60;99.90;;;;;;4874966;28;88727;-30
2023/04/18 08:25:15;;;;;;;15.25;13.32;;;9.40;99.90;;;;;;4870426;28;90134;-30
2023/04/18 08:27:40;;;;;;;16.88;11.65;;;9.40;99.90;;;;;;4878747;28;89656;-31
2023/04/18 08:30:07;;;;;;;19.15;14.27;;;9.40;99.90;;;;;;4879742;28;89651;-32
2023/04/18 08:32:35;;;;;;;16.00;12.40;;;9.30;99.90;;;;;;4866816;28;90027;-33
2023/04/18 08:35:01;;;;;;;13.65;12.20;;;9.40;99.90;;;;;;4878950;28;90335;-31
2023/04/18 08:37:27;;;;;;;16.65;14.55;;;9.50;99.90;;;;;;4879243;28;89881;-30
2023/04/18 08:39:53;;;;;;;19.25;15.65;;;9.50;99.90;;;;;;4879253;28;89476;-30
2023/04/18 08:42:20;;;;;;;16.95;12.90;;;9.50;99.90;;;;;;4878626;28;89315;-31
2023/04/18 08:44:46;;;;;;;24.13;15.88;;;9.50;99.90;;;;;;4879204;28;90283;-31
2023/04/18 08:47:12;;;;;;;21.08;13.43;;;9.40;99.90;;;;;;4878902;28;90477;-28
2023/04/18 08:49:38;;;;;;;20.55;16.63;;;9.50;99.90;;;;;;4878933;28;90563;-34
2023/04/18 08:52:12;;;;;;;20.10;13.63;;;9.50;99.90;;;;;;4878770;28;89036;-29
2023/04/18 08:54:41;;;;;;;16.90;12.82;;;9.40;99.90;;;;;;4878005;28;91770;-30
2023/04/18 08:57:08;;;;;;;20.33;14.13;;;9.40;99.90;;;;;;4878550;28;89155;-30
2023/04/18 08:59:34;;;;;;;14.07;9.40;;;9.40;99.90;;;;;;4879627;28;90783;-30
2023/04/18 09:02:02;;;;;;;20.45;13.93;;;9.50;99.90;;;;;;4879596;28;89321;-31
2023/04/18 09:04:39;;;;;;;18.67;13.70;;;9.50;99.90;;;;;;4878033;28;90109;-34
2023/04/18 09:07:13;;;;;;;21.13;10.57;;;9.60;99.90;;;;;;4867228;28;89815;-35
2023/04/18 09:09:57;;;;;;;20.90;12.18;;;9.60;99.90;;;;;;4878893;28;92598;-32
2023/04/18 09:12:25;;;;;;;21.63;16.15;;;9.60;99.90;;;;;;4878118;28;90210;-35
2023/04/18 09:14:55;;;;;;;15.95;12.45;;;9.70;99.90;;;;;;4878865;28;89681;-32
2023/04/18 09:17:31;;;;;;;11.52;10.10;;;9.70;99.90;;;;;;4878333;28;89076;-33
2023/04/18 09:19:58;;;;;;;19.65;15.00;;;9.80;99.90;;;;;;4867020;28;89615;-34
2023/04/18 09:22:25;;;;;;;15.23;11.23;;;10.00;99.90;;;;;;4878202;28;89271;-34
2023/04/18 09:24:54;;;;;;;15.40;13.85;;;10.30;99.90;;;;;;4865714;28;89880;-35
2023/04/18 09:27:21;;;;;;;16.83;10.05;;;10.50;99.90;;;;;;4878231;28;89534;-31
2023/04/18 09:29:53;;;;;;;17.05;11.65;;;10.60;99.90;;;;;;4878688;28;89501;-31
2023/04/18 09:32:24;;;;;;;14.90;12.30;;;10.60;99.90;;;;;;4878344;28;88327;-30
2023/04/18 09:34:56;;;;;;;17.77;13.15;;;10.60;99.90;;;;;;4877985;28;90267;-30
2023/04/18 09:37:25;;;;;;;14.45;11.90;;;10.50;99.90;;;;;;4878097;28;90524;-31
2023/04/18 09:39:51;;;;;;;12.13;10.93;;;10.60;99.90;;;;;;4877983;28;90731;-31
2023/04/18 09:42:17;;;;;;;17.60;12.98;;;10.80;99.90;;;;;;4878431;28;89077;-35
2023/04/18 09:45:04;;;;;;;17.23;13.18;;;11.00;99.90;;;;;;4878172;28;90165;-30
2023/04/18 09:47:33;;;;;;;16.50;11.57;;;10.90;99.90;;;;;;4878975;28;89931;-30
2023/04/18 09:50:01;;;;;;;18.30;15.30;;;10.90;99.90;;;;;;4878432;28;89232;-31
2023/04/18 09:52:31;;;;;;;15.90;10.40;;;10.90;99.90;;;;;;4876459;28;89786;-30
2023/04/18 09:55:00;;;;;;;18.45;11.30;;;11.00;99.90;;;;;;4878127;28;90256;-31
2023/04/18 09:57:28;;;;;;;16.77;14.82;;;11.00;99.90;;;;;;4878057;28;89445;-32
2023/04/18 10:00:09;;;;;;;12.27;9.55;;;11.10;99.90;;;;;;4876734;28;89711;-30
2023/04/18 10:02:59;;;;;;;17.00;10.90;;;11.30;99.90;;;;;;4871103;28;90534;-32
2023/04/18 10:05:27;;;;;;;18.23;12.77;;;11.60;99.90;;;;;;4877418;28;88987;-33
2023/04/18 10:07:53;;;;;;;15.68;13.30;;;11.80;99.90;;;;;;4875702;28;90698;-29
2023/04/18 10:10:19;;;;;;;20.52;14.98;;;11.80;99.90;;;;;;4878822;28;90060;-31
2023/04/18 10:12:47;;;;;;;16.40;11.48;;;12.00;99.90;;;;;;4878143;28;89064;-34
2023/04/18 10:15:14;;;;;;;13.70;11.23;;;12.20;99.90;;;;;;4878187;28;91051;-32
2023/04/18 10:17:57;;;;;;;16.23;11.43;;;12.00;99.90;;;;;;4879939;28;89339;-32
2023/04/18 10:20:25;;;;;;;17.02;14.25;;;12.20;99.90;;;;;;4881381;28;91302;-33
2023/04/18 10:22:52;;;;;;;18.02;14.32;;;12.40;99.90;;;;;;4877163;28;87872;-32
2023/04/18 10:25:37;;;;;;;15.75;10.52;;;12.50;99.90;;;;;;4873055;28;90429;-32
2023/04/18 10:28:04;;;;;;;16.83;12.77;;;12.70;99.90;;;;;;4876892;28;90750;-32
2023/04/18 10:30:39;;;;;;;13.50;11.63;;;12.60;99.90;;;;;;4881117;28;89947;-31
2023/04/18 10:33:29;;;;;;;15.45;11.20;;;12.90;99.90;;;;;;4877072;28;90250;-31
2023/04/18 10:36:00;;;;;;;11.05;9.90;;;12.90;99.90;;;;;;4879736;28;90325;-34
2023/04/18 10:38:26;;;;;;;12.35;10.13;;;13.20;99.90;;;;;;4881082;28;89638;-32
2023/04/18 10:40:52;;;;;;;12.35;11.07;;;13.00;99.90;;;;;;4880039;28;91141;-32
2023/04/18 10:43:18;;;;;;;11.75;10.52;;;13.00;97.30;;;;;;4881750;28;89245;-33
2023/04/18 10:45:44;;;;;;;10.82;9.10;;;13.10;99.90;;;;;;4880581;28;90102;-32
2023/04/18 10:48:29;;;;;;;9.63;8.50;;;13.30;93.50;;;;;;4881268;28;89548;-34
2023/04/18 10:51:17;;;;;;;10.82;8.57;;;13.30;99.90;;;;;;4876695;28;89507;-32
2023/04/18 10:53:56;;;;;;;14.65;13.15;;;13.40;99.90;;;;;;4880965;28;90161;-33
2023/04/18 10:56:22;;;;;;;15.70;12.90;;;13.20;84.30;;;;;;4885265;28;90193;-32
2023/04/18 10:58:50;;;;;;;11.45;8.35;;;13.20;94.60;;;;;;4892786;28;90058;-31
2023/04/18 11:01:26;;;;;;;18.10;12.30;;;13.30;94.60;;;;;;4882855;28;89689;-32
2023/04/18 11:03:53;;;;;;;12.63;9.45;;;13.50;95.90;;;;;;4879697;28;88764;-33
2023/04/18 11:06:20;;;;;;;15.88;12.43;;;13.50;99.20;;;;;;4885326;28;89726;-32
2023/04/18 11:08:48;;;;;;;13.48;11.15;;;13.60;99.70;;;;;;4880336;28;90260;-34
2023/04/18 11:11:14;;;;;;;12.80;9.05;;;13.60;92.80;;;;;;4881821;28;89810;-32
2023/04/18 11:13:58;;;;;;;10.90;9.85;;;13.50;90.20;;;;;;4880655;28;88909;-34
2023/04/18 11:16:28;;;;;;;15.77;11.80;;;13.50;99.90;;;;;;4876844;28;90392;-30
2023/04/18 11:18:54;;;;;;;14.93;13.43;;;13.50;87.00;;;;;;4879619;28;90728;-33
2023/04/18 11:21:21;;;;;;;15.73;11.65;;;13.60;93.10;;;;;;4880863;28;90002;-31
2023/04/18 11:23:46;;;;;;;12.52;10.15;;;13.70;99.90;;;;;;4869742;28;89336;-30
2023/04/18 11:26:16;;;;;;;13.98;10.90;;;13.50;94.50;;;;;;4878589;28;89816;-33
2023/04/18 11:28:42;;;;;;;15.82;13.80;;;13.50;92.10;;;;;;4879903;28;90338;-33
2023/04/18 11:31:07;;;;;;;15.73;14.20;;;13.70;86.90;;;;;;4880074;28;89773;-33
2023/04/18 11:33:33;;;;;;;16.05;14.38;;;13.80;91.60;;;;;;4880110;28;89287;-33
2023/04/18 11:35:59;;;;;;;16.85;15.07;;;13.60;85.70;;;;;;4880156;28;91642;-30
2023/04/18 11:38:32;;;;;;;21.10;16.88;;;13.50;88.40;;;;;;4879559;28;89887;-32
2023/04/18 11:41:01;;;;;;;17.20;13.98;;;13.50;85.60;;;;;;4880005;28;91322;-31
2023/04/18 11:43:27;;;;;;;15.27;13.07;;;13.60;88.00;;;;;;4880068;28;90264;-33
2023/04/18 11:45:57;;;;;;;14.63;12.82;;;13.70;92.90;;;;;;4880242;28;89290;-34
2023/04/18 11:48:32;;;;;;;18.80;14.20;;;13.70;91.30;;;;;;4879421;28;92094;-31
2023/04/18 11:50:58;;;;;;;16.92;14.10;;;13.60;95.20;;;;;;4880220;28;89244;-33
2023/04/18 11:53:37;;;;;;;16.25;13.95;;;13.70;93.00;;;;;;4879751;28;88234;-34
2023/04/18 11:56:03;;;;;;;14.65;12.50;;;13.50;86.60;;;;;;4879069;28;90874;-33
2023/04/18 11:58:31;;;;;;;18.85;13.60;;;13.60;90.80;;;;;;4879591;28;89344;-33
2023/04/18 12:00:58;;;;;;;19.55;14.43;;;13.50;84.40;;;;;;4880275;28;89644;-33
2023/04/18 12:03:23;;;;;;;16.88;14.13;;;13.60;85.30;;;;;;4878651;28;88200;-32
2023/04/18 12:05:58;;;;;;;21.38;19.00;;;13.40;83.00;;;;;;4880839;28;90415;-31
2023/04/18 12:08:25;;;;;;;18.63;13.65;;;13.50;93.30;;;;;;4921575;23;91323;-32
2023/04/18 12:10:53;;;;;;;16.08;13.68;;;13.50;83.30;;;;;;4897840;28;89659;-31
2023/04/18 12:13:25;;;;;;;16.97;13.47;;;13.70;85.00;;;;;;4891502;28;88614;-32
2023/04/18 12:15:51;;;;;;;17.25;13.07;;;13.80;88.30;;;;;;4891848;28;88418;-33
2023/04/18 12:18:21;;;;;;;17.65;13.18;;;13.80;90.40;;;;;;4899012;28;89666;-30
2023/04/18 12:20:49;;;;;;;14.23;12.85;;;13.90;94.20;;;;;;4897990;28;89696;-32
2023/04/18 12:23:31;;;;;;;20.23;15.95;;;13.90;87.40;;;;;;4892307;28;89774;-34
2023/04/18 12:26:02;;;;;;;16.48;14.18;;;13.90;89.10;;;;;;4894325;28;90575;-32
2023/04/18 12:28:28;;;;;;;16.23;14.52;;;13.90;85.80;;;;;;4898862;28;90445;-32
2023/04/18 12:30:54;;;;;;;18.42;14.85;;;13.80;84.70;;;;;;4898714;28;89506;-31
2023/04/18 12:33:20;;;;;;;13.32;11.95;;;13.90;81.50;;;;;;4898308;28;90211;-32
2023/04/18 12:35:47;;;;;;;22.67;14.20;;;13.90;81.80;;;;;;4897875;28;90065;-31